createdAt,value
2018-02-15T00:00:09.143Z,1.30
2018-02-15T00:02:36.686Z,1.40
2018-02-15T00:05:04.201Z,1.30
2018-02-15T00:07:31.706Z,1.30
2018-02-15T00:09:59.209Z,1.40
2018-02-15T00:12:26.728Z,1.30
2018-02-15T00:14:54.253Z,1.30
2018-02-15T00:17:22.537Z,1.30
2018-02-15T00:19:50.828Z,1.40
2018-02-15T00:22:18.400Z,1.30
2018-02-15T00:24:45.921Z,1.40
2018-02-15T00:27:14.218Z,1.40
2018-02-15T00:29:41.804Z,1.40
2018-02-15T00:32:09.316Z,1.40
2018-02-15T00:34:36.833Z,1.40
2018-02-15T00:37:04.403Z,1.40
2018-02-15T00:39:31.927Z,1.40
2018-02-15T00:41:59.499Z,1.30
2018-02-15T00:44:27.744Z,1.40
2018-02-15T00:46:56.060Z,1.40
2018-02-15T00:49:23.937Z,1.40
2018-02-15T00:51:51.449Z,1.30
2018-02-15T00:54:19.756Z,1.40
2018-02-15T00:56:47.272Z,1.40
2018-02-15T00:59:14.769Z,1.40
2018-02-15T01:01:42.324Z,1.40
2018-02-15T01:04:09.868Z,1.40
2018-02-15T01:06:37.422Z,1.40
2018-02-15T01:09:04.973Z,1.40
2018-02-15T01:11:32.480Z,1.50
2018-02-15T01:14:00.002Z,1.40
2018-02-15T01:16:27.526Z,1.50
2018-02-15T01:18:55.041Z,1.40
2018-02-15T01:21:22.534Z,1.40
2018-02-15T01:23:50.814Z,1.50
2018-02-15T01:26:18.347Z,1.50
2018-02-15T01:28:46.126Z,1.50
2018-02-15T01:31:13.631Z,1.50
2018-02-15T01:33:41.959Z,1.50
2018-02-15T01:36:09.507Z,1.50
2018-02-15T01:38:36.997Z,1.40
2018-02-15T01:41:04.534Z,1.40
2018-02-15T01:43:32.041Z,1.40
2018-02-15T01:45:59.566Z,1.50
2018-02-15T01:48:27.122Z,1.40
2018-02-15T01:50:54.636Z,1.40
2018-02-15T01:53:22.906Z,1.40
2018-02-15T01:55:51.214Z,1.40
2018-02-15T01:58:18.752Z,1.40
2018-02-15T02:00:47.031Z,1.50
2018-02-15T02:03:15.342Z,1.50
2018-02-15T02:05:42.868Z,1.50
2018-02-15T02:08:11.179Z,1.40
2018-02-15T02:10:38.719Z,1.40
2018-02-15T02:13:06.255Z,1.50
2018-02-15T02:15:34.542Z,1.50
2018-02-15T02:18:02.843Z,1.50
2018-02-15T02:20:30.364Z,1.50
2018-02-15T02:22:57.893Z,1.50
2018-02-15T02:25:25.426Z,1.60
2018-02-15T02:27:52.968Z,1.60
2018-02-15T02:30:20.496Z,1.60
2018-02-15T02:32:48.017Z,1.60
2018-02-15T02:35:15.568Z,1.50
2018-02-15T02:37:43.113Z,1.50
2018-02-15T02:40:10.626Z,1.50
2018-02-15T02:42:38.130Z,1.50
2018-02-15T02:45:05.657Z,1.50
2018-02-15T02:47:33.934Z,1.50
2018-02-15T02:50:01.461Z,1.50
2018-02-15T02:52:29.750Z,1.50
2018-02-15T02:54:57.273Z,1.50
2018-02-15T02:57:24.782Z,1.40
2018-02-15T02:59:52.320Z,1.50
2018-02-15T03:02:19.837Z,1.50
2018-02-15T03:04:47.388Z,1.50
2018-02-15T03:07:14.952Z,1.50
2018-02-15T03:09:42.561Z,1.50
2018-02-15T03:12:10.090Z,1.40
2018-02-15T03:14:37.624Z,1.40
2018-02-15T03:17:05.925Z,1.40
2018-02-15T03:19:33.433Z,1.40
2018-02-15T03:22:01.026Z,1.40
2018-02-15T03:24:29.309Z,1.40
2018-02-15T03:26:57.614Z,1.40
2018-02-15T03:29:25.133Z,1.40
2018-02-15T03:31:53.484Z,1.30
2018-02-15T03:34:21.001Z,1.30
2018-02-15T03:36:48.513Z,1.20
2018-02-15T03:39:16.029Z,1.10
2018-02-15T03:41:43.529Z,1.00
2018-02-15T03:44:11.044Z,1.00
2018-02-15T03:46:38.625Z,0.90
2018-02-15T03:49:06.245Z,0.90
2018-02-15T03:51:33.773Z,0.70
2018-02-15T03:54:01.277Z,0.60
2018-02-15T03:56:28.813Z,0.60
2018-02-15T03:58:57.109Z,0.30
2018-02-15T04:01:24.641Z,0.30
2018-02-15T04:03:52.937Z,0.10
2018-02-15T04:06:20.482Z,0.10
2018-02-15T04:08:48.764Z,-0.10
2018-02-15T04:11:17.063Z,-0.20
2018-02-15T04:13:44.572Z,-0.20
2018-02-15T04:16:12.090Z,-0.30
2018-02-15T04:18:39.662Z,-0.40
2018-02-15T04:21:07.229Z,-0.40
2018-02-15T04:23:34.742Z,-0.40
2018-02-15T04:26:03.094Z,-0.50
2018-02-15T04:28:30.929Z,-0.50
2018-02-15T04:30:58.458Z,-0.50
2018-02-15T04:33:25.982Z,-0.60
2018-02-15T04:35:53.510Z,-0.60
2018-02-15T04:38:21.829Z,-0.70
2018-02-15T04:40:50.119Z,-0.70
2018-02-15T04:43:18.509Z,-0.70
2018-02-15T04:45:46.042Z,-0.70
2018-02-15T04:48:13.575Z,-0.70
2018-02-15T04:50:41.105Z,-0.80
2018-02-15T04:53:08.683Z,-0.80
2018-02-15T04:55:36.207Z,-0.80
2018-02-15T04:58:03.738Z,-0.80
2018-02-15T05:00:31.262Z,-0.80
2018-02-15T05:02:58.814Z,-0.90
2018-02-15T05:05:26.418Z,-0.90
2018-02-15T05:07:53.938Z,-0.90
2018-02-15T05:10:21.458Z,-0.90
2018-02-15T05:12:49.793Z,-0.90
2018-02-15T05:15:17.343Z,-0.90
2018-02-15T05:17:44.864Z,-0.80
2018-02-15T05:20:12.773Z,-0.80
2018-02-15T05:22:40.289Z,-0.90
2018-02-15T05:25:08.609Z,-0.80
2018-02-15T05:27:36.201Z,-0.80
2018-02-15T05:30:03.717Z,-0.80
2018-02-15T05:32:31.247Z,-0.80
2018-02-15T05:34:59.582Z,-0.80
2018-02-15T05:37:27.249Z,-0.80
2018-02-15T05:39:54.763Z,-0.80
2018-02-15T05:42:22.298Z,-0.70
2018-02-15T05:44:50.588Z,-0.60
2018-02-15T05:47:18.138Z,-0.60
2018-02-15T05:49:46.467Z,-0.50
2018-02-15T05:52:13.977Z,-0.60
2018-02-15T05:54:42.342Z,-0.60
2018-02-15T05:57:09.893Z,-0.60
2018-02-15T05:59:37.420Z,-0.70
2018-02-15T06:02:04.946Z,-0.70
2018-02-15T06:04:32.481Z,-0.70
2018-02-15T06:07:01.027Z,-0.70
2018-02-15T06:09:28.636Z,-0.60
2018-02-15T06:11:56.157Z,-0.60
2018-02-15T06:14:23.680Z,-0.60
2018-02-15T06:16:51.199Z,-0.60
2018-02-15T06:19:18.714Z,-0.50
2018-02-15T06:21:46.246Z,-0.40
2018-02-15T06:24:13.773Z,-0.40
2018-02-15T06:26:41.335Z,-0.30
2018-02-15T06:29:08.874Z,-0.40
2018-02-15T06:31:36.484Z,-0.40
2018-02-15T06:34:04.017Z,-0.40
2018-02-15T06:36:31.573Z,-0.30
2018-02-15T06:39:06.772Z,-0.30
2018-02-15T06:41:34.340Z,-0.30
2018-02-15T06:44:01.901Z,-0.30
2018-02-15T06:46:29.446Z,-0.20
2018-02-15T06:48:57.015Z,-0.20
2018-02-15T06:51:24.549Z,-0.10
2018-02-15T06:53:52.102Z,-0.20
2018-02-15T06:56:20.422Z,-0.10
2018-02-15T06:58:47.930Z,-0.10
2018-02-15T07:01:16.246Z,0.00
2018-02-15T07:03:43.872Z,0.00
2018-02-15T07:06:12.174Z,0.10
2018-02-15T07:08:39.696Z,0.10
2018-02-15T07:11:07.969Z,0.20
2018-02-15T07:13:35.501Z,0.20
2018-02-15T07:16:03.833Z,0.30
2018-02-15T07:18:31.425Z,0.30
2018-02-15T07:20:58.953Z,0.30
2018-02-15T07:23:26.489Z,0.40
2018-02-15T07:25:54.020Z,0.40
2018-02-15T07:28:21.598Z,0.40
2018-02-15T07:30:49.159Z,0.30
2018-02-15T07:33:16.756Z,0.40
2018-02-15T07:35:44.272Z,0.40
2018-02-15T07:38:11.781Z,0.40
2018-02-15T07:40:39.320Z,0.40
2018-02-15T07:43:07.636Z,0.50
2018-02-15T07:45:35.225Z,0.40
2018-02-15T07:48:02.742Z,0.40
2018-02-15T07:50:30.313Z,0.40
2018-02-15T07:52:57.850Z,0.40
2018-02-15T07:55:26.135Z,0.50
2018-02-15T07:57:53.660Z,0.50
2018-02-15T08:00:21.194Z,0.50
2018-02-15T08:02:48.789Z,0.50
2018-02-15T08:05:16.310Z,0.50
2018-02-15T08:07:44.587Z,0.50
2018-02-15T08:10:12.110Z,0.50
2018-02-15T08:12:39.905Z,0.60
2018-02-15T08:15:07.418Z,0.60
2018-02-15T08:17:35.735Z,0.60
2018-02-15T08:20:03.245Z,0.60
2018-02-15T08:22:31.617Z,0.60
2018-02-15T08:24:59.148Z,0.60
2018-02-15T08:27:26.713Z,0.60
2018-02-15T08:29:54.570Z,0.50
2018-02-15T08:32:22.102Z,0.60
2018-02-15T08:34:49.623Z,0.60
2018-02-15T08:37:17.249Z,0.60
2018-02-15T08:39:45.530Z,0.60
2018-02-15T08:42:13.034Z,0.60
2018-02-15T08:44:41.314Z,0.60
2018-02-15T08:47:09.690Z,0.60
2018-02-15T08:49:37.976Z,0.60
2018-02-15T08:52:06.778Z,0.60
2018-02-15T08:54:34.577Z,0.60
2018-02-15T08:57:02.145Z,0.60
2018-02-15T08:59:29.665Z,0.60
2018-02-15T09:01:57.243Z,0.60
2018-02-15T09:04:24.766Z,0.60
2018-02-15T09:06:53.058Z,0.60
2018-02-15T09:09:20.671Z,0.60
2018-02-15T09:11:48.173Z,0.60
2018-02-15T09:14:16.453Z,0.70
2018-02-15T09:16:43.995Z,0.60
2018-02-15T09:19:11.545Z,0.60
2018-02-15T09:21:39.077Z,0.60
2018-02-15T09:24:06.606Z,0.70
2018-02-15T09:26:34.144Z,0.70
2018-02-15T09:29:02.491Z,0.70
2018-02-15T09:31:30.018Z,0.70
2018-02-15T09:33:57.536Z,0.70
2018-02-15T09:36:25.846Z,0.70
2018-02-15T09:38:53.364Z,0.70
2018-02-15T09:41:21.652Z,0.80
2018-02-15T09:43:49.956Z,0.80
2018-02-15T09:46:17.486Z,0.70
2018-02-15T09:48:45.771Z,0.80
2018-02-15T09:51:14.109Z,0.80
2018-02-15T09:53:41.681Z,0.80
2018-02-15T09:56:09.225Z,0.80
2018-02-15T09:58:36.738Z,0.90
2018-02-15T10:01:04.289Z,0.80
2018-02-15T10:03:32.604Z,0.70
2018-02-15T10:06:00.134Z,0.70
2018-02-15T10:08:27.681Z,0.70
2018-02-15T10:10:55.980Z,0.70
2018-02-15T10:13:23.554Z,0.70
2018-02-15T10:15:51.093Z,0.70
2018-02-15T10:18:19.364Z,0.70
2018-02-15T10:20:47.657Z,0.80
2018-02-15T10:23:15.257Z,0.80
2018-02-15T10:25:42.769Z,0.80
2018-02-15T10:28:10.284Z,0.80
2018-02-15T10:30:37.811Z,0.80
2018-02-15T10:33:05.400Z,0.80
2018-02-15T10:35:32.914Z,0.80
2018-02-15T10:38:00.525Z,0.90
2018-02-15T10:40:28.045Z,0.90
2018-02-15T10:42:55.573Z,0.90
2018-02-15T10:45:23.911Z,1.00
2018-02-15T10:47:51.471Z,1.00
2018-02-15T10:50:19.011Z,1.00
2018-02-15T10:52:46.596Z,0.90
2018-02-15T10:55:14.179Z,0.90
2018-02-15T10:57:41.695Z,1.00
2018-02-15T11:00:09.226Z,0.90
2018-02-15T11:02:36.757Z,0.90
2018-02-15T11:05:10.075Z,0.90
2018-02-15T11:07:38.377Z,0.90
2018-02-15T11:10:05.930Z,0.90
2018-02-15T11:12:33.466Z,0.90
2018-02-15T11:15:01.787Z,0.90
2018-02-15T11:17:29.301Z,0.90
2018-02-15T11:19:56.857Z,0.90
2018-02-15T11:22:25.141Z,1.00
2018-02-15T11:24:53.420Z,1.00
2018-02-15T11:27:21.706Z,1.10
2018-02-15T11:29:49.949Z,1.10
2018-02-15T11:32:17.429Z,1.10
2018-02-15T11:34:44.922Z,1.20
2018-02-15T11:37:12.406Z,1.20
2018-02-15T11:39:39.872Z,1.30
2018-02-15T11:42:08.148Z,1.30
2018-02-15T11:44:35.620Z,1.30
2018-02-15T11:47:03.092Z,1.30
2018-02-15T11:49:30.580Z,1.20
2018-02-15T11:51:58.070Z,1.30
2018-02-15T11:54:25.565Z,1.30
2018-02-15T11:56:53.065Z,1.30
2018-02-15T11:59:20.560Z,1.30
2018-02-15T12:01:48.033Z,1.40
2018-02-15T12:04:15.532Z,1.50
2018-02-15T12:06:42.997Z,1.50
2018-02-15T12:09:10.494Z,1.50
2018-02-15T12:11:37.965Z,1.50
2018-02-15T12:14:05.456Z,1.50
2018-02-15T12:16:33.688Z,1.60
2018-02-15T12:19:01.209Z,1.50
2018-02-15T12:21:28.689Z,1.60
2018-02-15T12:23:56.197Z,1.60
2018-02-15T12:26:23.908Z,1.60
2018-02-15T12:28:51.381Z,1.60
2018-02-15T12:31:18.865Z,1.60
2018-02-15T12:33:46.351Z,1.50
2018-02-15T12:36:14.603Z,1.50
2018-02-15T12:38:42.079Z,1.50
2018-02-15T12:41:10.328Z,1.60
2018-02-15T12:43:37.793Z,1.50
2018-02-15T12:46:05.281Z,1.60
2018-02-15T12:48:33.515Z,1.60
2018-02-15T12:51:01.002Z,1.60
2018-02-15T12:53:29.254Z,1.60
2018-02-15T12:55:57.570Z,1.60
2018-02-15T12:58:25.820Z,1.60
2018-02-15T13:00:53.301Z,1.60
2018-02-15T13:03:21.546Z,1.70
2018-02-15T13:05:49.008Z,1.70
2018-02-15T13:08:16.507Z,1.70
2018-02-15T13:10:43.980Z,1.60
2018-02-15T13:13:23.517Z,1.70
2018-02-15T13:16:03.009Z,1.70
2018-02-15T13:18:30.498Z,1.70
2018-02-15T13:20:58.730Z,1.80
2018-02-15T13:23:26.244Z,1.70
2018-02-15T13:25:53.737Z,1.80
2018-02-15T13:28:38.245Z,1.80
2018-02-15T13:31:06.507Z,1.90
2018-02-15T13:33:34.761Z,1.90
2018-02-15T13:36:02.267Z,1.90
2018-02-15T13:38:29.764Z,1.90
2018-02-15T13:40:57.288Z,1.90
2018-02-15T13:43:24.765Z,1.90
2018-02-15T13:45:52.236Z,1.90
2018-02-15T13:48:19.733Z,2.00
2018-02-15T13:50:47.219Z,2.00
2018-02-15T13:53:14.684Z,2.00
2018-02-15T13:55:42.161Z,2.00
2018-02-15T13:58:09.925Z,2.10
2018-02-15T14:00:37.410Z,2.10
2018-02-15T14:03:04.884Z,2.10
2018-02-15T14:05:32.359Z,2.10
2018-02-15T14:08:00.604Z,2.10
2018-02-15T14:10:28.101Z,2.10
2018-02-15T14:12:56.341Z,2.20
2018-02-15T14:15:23.820Z,2.20
2018-02-15T14:17:51.316Z,2.20
2018-02-15T14:20:18.792Z,2.30
2018-02-15T14:22:46.281Z,2.30
2018-02-15T14:25:13.753Z,2.20
2018-02-15T14:27:41.233Z,2.30
2018-02-15T14:30:09.501Z,2.30
2018-02-15T14:32:37.752Z,2.30
2018-02-15T14:35:05.242Z,2.30
2018-02-15T14:37:33.492Z,2.30
2018-02-15T14:40:00.976Z,2.30
2018-02-15T14:42:29.250Z,2.40
2018-02-15T14:44:57.493Z,2.40
2018-02-15T14:47:24.968Z,2.40
2018-02-15T14:49:52.449Z,2.40
2018-02-15T14:52:20.704Z,2.40
2018-02-15T14:54:48.184Z,2.40
2018-02-15T14:57:16.440Z,2.40
2018-02-15T14:59:43.920Z,2.40
2018-02-15T15:02:11.413Z,2.40
2018-02-15T15:04:38.930Z,2.40
2018-02-15T15:07:07.168Z,2.50
2018-02-15T15:09:34.667Z,2.50
2018-02-15T15:12:02.927Z,2.60
2018-02-15T15:14:30.413Z,2.60
2018-02-15T15:16:57.893Z,2.60
2018-02-15T15:19:25.372Z,2.60
2018-02-15T15:21:52.863Z,2.60
2018-02-15T15:24:20.347Z,2.60
2018-02-15T15:26:47.825Z,2.60
2018-02-15T15:29:15.297Z,2.60
2018-02-15T15:31:42.768Z,2.60
2018-02-15T15:34:10.237Z,2.60
2018-02-15T15:36:37.740Z,2.60
2018-02-15T15:39:05.214Z,2.60
2018-02-15T15:41:32.704Z,2.70
2018-02-15T15:44:00.190Z,2.70
2018-02-15T15:46:28.520Z,2.80
2018-02-15T15:48:56.035Z,2.80
2018-02-15T15:51:24.300Z,2.70
2018-02-15T15:53:51.993Z,2.70
2018-02-15T15:56:19.464Z,2.80
2018-02-15T15:58:46.943Z,2.80
2018-02-15T16:01:14.424Z,2.80
2018-02-15T16:03:41.909Z,2.90
2018-02-15T16:06:10.436Z,2.90
2018-02-15T16:08:37.915Z,2.90
2018-02-15T16:11:05.412Z,2.90
2018-02-15T16:13:33.676Z,3.00
2018-02-15T16:16:01.145Z,3.00
2018-02-15T16:18:29.432Z,3.10
2018-02-15T16:20:56.872Z,3.10
2018-02-15T16:23:25.139Z,3.10
2018-02-15T16:31:52.248Z,3.20
2018-02-15T16:34:20.489Z,3.40
2018-02-15T16:36:47.986Z,3.30
2018-02-15T16:39:16.232Z,3.40
2018-02-15T16:41:43.700Z,3.40
2018-02-15T16:44:11.423Z,3.40
2018-02-15T16:46:38.896Z,3.30
2018-02-15T16:49:07.138Z,3.40
2018-02-15T16:51:34.624Z,3.40
2018-02-15T16:54:02.100Z,3.40
2018-02-15T16:56:29.580Z,3.40
2018-02-15T16:58:57.053Z,3.40
2018-02-15T17:01:25.567Z,3.40
2018-02-15T17:03:53.045Z,3.40
2018-02-15T17:06:20.530Z,3.40
2018-02-15T17:08:48.008Z,3.40
2018-02-15T17:11:16.269Z,3.50
2018-02-15T17:13:43.736Z,3.40
2018-02-15T17:16:11.966Z,3.50
2018-02-15T17:18:39.449Z,3.50
2018-02-15T17:21:06.912Z,3.50
2018-02-15T17:23:34.401Z,3.50
2018-02-15T17:26:02.645Z,3.50
2018-02-15T17:28:30.120Z,3.50
2018-02-15T17:30:58.361Z,3.60
2018-02-15T17:33:25.845Z,3.60
2018-02-15T17:35:53.323Z,3.70
2018-02-15T17:38:21.600Z,3.70
2018-02-15T17:40:49.832Z,3.70
2018-02-15T17:43:17.304Z,3.70
2018-02-15T17:45:44.785Z,3.60
2018-02-15T17:48:13.028Z,3.60
2018-02-15T17:50:41.282Z,3.60
2018-02-15T17:53:08.751Z,3.60
2018-02-15T17:55:36.228Z,3.60
2018-02-15T17:58:03.693Z,3.60
2018-02-15T18:00:31.182Z,3.50
2018-02-15T18:02:59.416Z,3.60
2018-02-15T18:05:26.896Z,3.50
2018-02-15T18:07:54.363Z,3.60
2018-02-15T18:10:22.603Z,3.60
2018-02-15T18:12:50.076Z,3.60
2018-02-15T18:15:17.551Z,3.70
2018-02-15T18:17:45.020Z,3.60
2018-02-15T18:20:13.277Z,3.70
2018-02-15T18:22:40.744Z,3.60
2018-02-15T18:25:08.216Z,3.70
2018-02-15T18:27:36.461Z,3.90
2018-02-15T18:30:03.933Z,3.90
2018-02-15T18:32:31.412Z,4.00
2018-02-15T18:34:59.672Z,4.10
2018-02-15T18:37:27.153Z,4.10
2018-02-15T18:39:54.625Z,4.10
2018-02-15T18:42:22.104Z,4.10
2018-02-15T18:44:49.577Z,4.20
2018-02-15T18:47:17.829Z,4.20
2018-02-15T18:49:45.296Z,4.20
2018-02-15T18:52:12.796Z,4.20
2018-02-15T18:54:40.260Z,4.20
2018-02-15T18:57:08.617Z,4.20
2018-02-15T18:59:36.902Z,4.30
2018-02-15T19:02:04.367Z,4.30
2018-02-15T19:04:31.849Z,4.20
2018-02-15T19:07:00.088Z,4.30
2018-02-15T19:09:27.577Z,4.20
2018-02-15T19:11:55.812Z,4.30
2018-02-15T19:14:23.292Z,4.20
2018-02-15T19:16:50.764Z,4.20
2018-02-15T19:19:19.028Z,4.20
2018-02-15T19:21:46.500Z,4.20
2018-02-15T19:24:14.746Z,4.20
2018-02-15T19:26:42.227Z,4.10
2018-02-15T19:29:09.708Z,4.10
2018-02-15T19:31:37.949Z,4.00
2018-02-15T19:34:05.416Z,4.00
2018-02-15T19:36:32.917Z,4.20
2018-02-15T19:39:00.389Z,4.00
2018-02-15T19:41:27.864Z,3.60
2018-02-15T19:43:55.609Z,3.40
2018-02-15T19:46:23.097Z,3.60
2018-02-15T19:48:50.573Z,3.60
2018-02-15T19:51:18.069Z,3.50
2018-02-15T19:53:45.598Z,3.60
2018-02-15T19:56:13.068Z,3.60
2018-02-15T19:58:41.324Z,3.60
2018-02-15T20:01:08.841Z,3.60
2018-02-15T20:03:36.329Z,3.70
2018-02-15T20:06:03.796Z,3.70
2018-02-15T20:08:31.279Z,3.80
2018-02-15T20:10:59.797Z,4.00
2018-02-15T20:13:27.295Z,3.90
2018-02-15T20:15:54.769Z,4.00
2018-02-15T20:18:23.020Z,4.20
2018-02-15T20:20:50.493Z,4.20
2018-02-15T20:23:18.212Z,4.10
2018-02-15T20:28:45.608Z,4.20
2018-02-15T20:31:13.183Z,4.20
2018-02-15T20:33:40.663Z,4.30
2018-02-15T20:36:08.169Z,4.30
2018-02-15T20:38:41.277Z,4.40
2018-02-15T20:41:08.774Z,4.40
2018-02-15T20:43:37.018Z,4.10
2018-02-15T20:46:04.540Z,4.10
2018-02-15T20:48:32.026Z,4.10
2018-02-15T20:51:05.280Z,4.00
2018-02-15T20:56:37.464Z,3.90
2018-02-15T20:59:04.955Z,4.00
2018-02-15T21:01:32.449Z,4.00
2018-02-15T21:03:59.929Z,3.90
2018-02-15T21:06:28.181Z,3.90
2018-02-15T21:08:55.657Z,3.80
2018-02-15T21:11:23.917Z,4.10
2018-02-15T21:13:51.402Z,4.10
2018-02-15T21:16:19.656Z,4.00
2018-02-15T21:18:47.136Z,4.00
2018-02-15T21:21:15.434Z,3.90
2018-02-15T21:23:43.659Z,3.80
2018-02-15T21:26:11.145Z,3.80
2018-02-15T21:28:39.399Z,3.70
2018-02-15T21:31:06.892Z,3.70
2018-02-15T21:33:34.382Z,3.70
2018-02-15T21:36:01.869Z,3.60
2018-02-15T21:38:29.352Z,3.50
2018-02-15T21:40:57.601Z,3.50
2018-02-15T21:43:25.088Z,3.50
2018-02-15T21:45:53.336Z,3.40
2018-02-15T21:48:20.820Z,3.40
2018-02-15T21:50:48.300Z,3.40
2018-02-15T21:53:15.792Z,3.40
2018-02-15T21:55:43.652Z,3.30
2018-02-15T21:58:11.162Z,3.30
2018-02-15T22:00:38.646Z,3.20
2018-02-15T22:03:06.128Z,3.20
2018-02-15T22:05:33.614Z,3.20
2018-02-15T22:08:01.098Z,3.20
2018-02-15T22:10:29.336Z,3.10
2018-02-15T22:12:56.810Z,3.10
2018-02-15T22:15:24.300Z,3.10
2018-02-15T22:17:52.544Z,3.00
2018-02-15T22:20:20.030Z,3.00
2018-02-15T22:22:48.268Z,3.00
2018-02-15T22:25:15.788Z,3.00
2018-02-15T22:27:43.327Z,3.10
2018-02-15T22:30:11.581Z,2.90
2018-02-15T22:32:39.056Z,2.90
2018-02-15T22:35:06.542Z,2.90
2018-02-15T22:37:34.017Z,2.80
2018-02-15T22:40:01.501Z,2.80
2018-02-15T22:42:28.979Z,2.80
2018-02-15T22:44:56.458Z,2.90
2018-02-15T22:47:24.705Z,2.70
2018-02-15T22:49:52.437Z,2.70
2018-02-15T22:52:19.925Z,2.80
2018-02-15T22:54:47.407Z,2.70
2018-02-15T22:57:14.895Z,2.70
2018-02-15T22:59:42.373Z,2.50
2018-02-15T23:02:10.076Z,2.50
2018-02-15T23:04:37.557Z,2.50
2018-02-15T23:07:05.803Z,2.40
2018-02-15T23:09:33.277Z,2.40
2018-02-15T23:12:00.782Z,2.40
2018-02-15T23:14:28.253Z,2.40
2018-02-15T23:16:56.496Z,2.20
2018-02-15T23:19:23.984Z,2.20
2018-02-15T23:21:51.458Z,2.20
2018-02-15T23:24:18.945Z,2.10
2018-02-15T23:26:46.429Z,2.00
2018-02-15T23:29:13.916Z,1.90
2018-02-15T23:31:41.392Z,1.80
2018-02-15T23:34:08.877Z,1.90
2018-02-15T23:36:37.138Z,1.90
2018-02-15T23:39:04.637Z,1.90
2018-02-15T23:41:32.152Z,2.00
2018-02-15T23:43:59.719Z,2.00
2018-02-15T23:46:27.259Z,2.00
2018-02-15T23:48:54.803Z,2.10
2018-02-15T23:51:22.318Z,2.20
2018-02-15T23:53:50.638Z,2.20
2018-02-15T23:56:18.180Z,2.20
2018-02-15T23:58:45.681Z,2.30
